Terminal Aerodrome Forecast
Issued by NWS

Home | Current Version | Previous Version | Text Only | Print | Product List | Glossary Off
Versions: 1 2 3 4 5 6 7 8 9 10 11 12 13 14 15 16 17 18 19 20 21 22 23 24 25 26

000
FTUS43 KGRB 291138
TAFCWA
TAF
KCWA 291138Z 2912/3012 VRB03KT 6SM BR OVC006
     FM291300 VRB03KT 3SM BR OVC004
     FM291600 06004KT 6SM BR BKN010
     FM291800 18005KT P6SM FEW015 BKN050
     FM292100 19004KT P6SM SCT050
     FM300400 VRB03KT 3SM BR SKC
     FM300900 00000KT 1/2SM FG BKN002=

USA.gov is the U.S. government's official web portal to all federal, state and local government web resources and services.